Time;durP1;ratioP1;P1;durP2;ratioP2;P2;SDS_P1;SDS_P2;PMS_P1;PMS_P2;Temp;Humidity;BMP_temperature;BMP_pressure;BME280_temperature;BME280_humidity;BME280_pressure;Samples;Min_cycle;Max_cycle;Signal;HPM_P1;HPM_P2
2022/01/24 00:03:39;;;;;;;83.27;36.10;;;;;;;-4.39;100.00;102346.19;15275882;19;20137;-51
2022/01/24 00:08:44;;;;;;;73.50;35.10;;;;;;;-4.41;100.00;102350.47;15269373;19;20137;-54
2022/01/24 00:29:43;;;;;;;44.47;24.77;;;;;;;-4.06;100.00;102368.00;15269988;19;20136;-53
2022/01/24 00:34:47;;;;;;;39.43;21.90;;;;;;;-3.91;100.00;102370.16;15259414;19;20140;-52
2022/01/24 00:39:52;;;;;;;34.30;18.90;;;;;;;-3.77;100.00;102363.59;15245098;19;20152;-53
2022/01/24 00:45:08;;;;;;;30.03;18.03;;;;;;;-3.64;100.00;102370.03;15265429;19;20194;-53
2022/01/24 00:55:35;;;;;;;26.50;15.97;;;;;;;-3.38;100.00;102350.69;15266336;19;20228;-53
2022/01/24 01:00:39;;;;;;;27.70;16.20;;;;;;;-3.27;100.00;102346.63;15241172;19;20147;-52
2022/01/24 01:06:01;;;;;;;31.70;16.93;;;;;;;-3.16;100.00;102343.41;15267719;19;20150;-52
2022/01/24 01:21:40;;;;;;;25.60;14.17;;;;;;;-2.91;100.00;102340.53;15260289;19;20136;-53
2022/01/24 01:26:49;;;;;;;25.90;15.03;;;;;;;-2.95;100.00;102323.88;15272026;19;20149;-53
2022/01/24 01:32:02;;;;;;;25.47;15.03;;;;;;;-2.81;100.00;102342.50;15286484;19;20627;-53
2022/01/24 01:53:25;;;;;;;23.53;13.27;;;;;;;-2.71;100.00;102348.81;15283436;19;20145;-53
2022/01/24 01:58:30;;;;;;;16.23;10.83;;;;;;;-2.67;100.00;102343.69;15285242;19;20501;-52
2022/01/24 02:03:35;;;;;;;17.03;11.00;;;;;;;-2.64;100.00;102351.56;15275684;19;20137;-53
2022/01/24 02:08:41;;;;;;;15.23;9.53;;;;;;;-2.57;100.00;102353.50;15254657;19;20152;-52
2022/01/24 02:13:49;;;;;;;15.20;9.43;;;;;;;-2.53;100.00;102352.69;15280458;19;20153;-52
2022/01/24 02:19:06;;;;;;;16.43;10.03;;;;;;;-2.47;100.00;102349.34;15282850;19;20153;-53
2022/01/24 02:24:12;;;;;;;15.10;9.03;;;;;;;-2.42;100.00;102352.06;15283258;19;20175;-54
2022/01/24 02:29:27;;;;;;;16.33;10.10;;;;;;;-2.38;100.00;102364.31;15248581;19;20846;-52
2022/01/24 02:34:34;;;;;;;15.73;10.23;;;;;;;-2.38;100.00;102354.75;15271362;19;20179;-53
2022/01/24 02:50:23;;;;;;;16.83;10.37;;;;;;;-2.33;100.00;102347.91;15253737;19;20147;-54
2022/01/24 02:55:28;;;;;;;18.13;10.50;;;;;;;-2.31;100.00;102361.00;15263560;19;20236;-53
2022/01/24 03:00:33;;;;;;;17.17;11.03;;;;;;;-2.27;100.00;102354.97;15281537;19;20203;-53
2022/01/24 03:05:38;;;;;;;19.07;10.77;;;;;;;-2.25;100.00;102348.06;15280505;19;20149;-53
2022/01/24 03:10:45;;;;;;;20.13;11.67;;;;;;;-2.23;100.00;102356.81;15269112;19;20162;-55
2022/01/24 03:15:55;;;;;;;18.37;11.23;;;;;;;-2.25;100.00;102353.28;15252708;19;20244;-53
2022/01/24 03:20:59;;;;;;;22.27;12.50;;;;;;;-2.25;100.00;102358.50;15276326;19;20556;-53
2022/01/24 03:26:04;;;;;;;19.07;11.97;;;;;;;-2.23;100.00;102356.81;15277400;19;20155;-52
2022/01/24 03:31:08;;;;;;;21.20;12.07;;;;;;;-2.22;100.00;102345.50;15276129;19;20168;-53
2022/01/24 03:36:13;;;;;;;20.80;12.60;;;;;;;-2.20;100.00;102351.66;15248232;19;20155;-53
2022/01/24 03:41:17;;;;;;;21.60;12.93;;;;;;;-2.17;100.00;102341.22;15265709;19;20163;-54
2022/01/24 03:46:28;;;;;;;22.00;12.33;;;;;;;-2.14;100.00;102343.91;15275413;19;20193;-53
2022/01/24 03:51:33;;;;;;;21.90;12.83;;;;;;;-2.11;100.00;102345.72;15274317;19;20149;-54
2022/01/24 03:56:37;;;;;;;17.70;11.40;;;;;;;-2.08;100.00;102344.06;15259011;19;20140;-52
2022/01/24 04:01:42;;;;;;;21.80;13.27;;;;;;;-2.08;100.00;102336.22;15252872;19;20674;-54
2022/01/24 04:06:48;;;;;;;19.13;11.60;;;;;;;-2.06;100.00;102347.59;15275314;19;20191;-53
2022/01/24 04:11:55;;;;;;;20.10;12.10;;;;;;;-2.02;100.00;102349.38;15276578;19;20140;-53
2022/01/24 04:22:32;;;;;;;19.33;11.67;;;;;;;-1.98;100.00;102340.75;15247439;19;20152;-53
2022/01/24 04:27:37;;;;;;;19.50;11.87;;;;;;;-1.98;100.00;102343.38;15269254;19;20208;-54
2022/01/24 04:32:41;;;;;;;18.23;11.73;;;;;;;-1.97;100.00;102344.25;15275995;19;20221;-53
2022/01/24 04:37:46;;;;;;;19.07;11.43;;;;;;;-1.97;100.00;102347.75;15273108;19;20635;-54
2022/01/24 04:42:52;;;;;;;17.83;11.40;;;;;;;-1.99;100.00;102346.84;15247846;19;20172;-54
2022/01/24 04:53:29;;;;;;;20.80;11.23;;;;;;;-1.94;100.00;102352.19;15274384;19;20156;-53
2022/01/24 04:58:34;;;;;;;17.03;10.80;;;;;;;-1.97;100.00;102342.53;15272809;19;20271;-51
2022/01/24 05:03:38;;;;;;;14.83;10.10;;;;;;;-1.95;100.00;102364.38;15253970;19;20156;-54
2022/01/24 05:08:44;;;;;;;16.03;10.73;;;;;;;-1.94;100.00;102362.63;15246450;19;20149;-54
2022/01/24 05:24:22;;;;;;;15.10;9.60;;;;;;;-1.93;100.00;102354.78;15265325;19;20597;-53
2022/01/24 05:29:27;;;;;;;14.03;9.57;;;;;;;-1.90;100.00;102359.22;15241160;19;20155;-52
2022/01/24 05:34:32;;;;;;;12.87;8.33;;;;;;;-1.90;100.00;102360.09;15264840;19;20721;-52
2022/01/24 05:39:36;;;;;;;15.23;10.17;;;;;;;-1.89;100.00;102361.84;15273602;19;20161;-53
2022/01/24 05:44:41;;;;;;;17.83;10.33;;;;;;;-1.94;100.00;102350.44;15267401;19;20193;-54
2022/01/24 05:49:45;;;;;;;14.20;9.37;;;;;;;-1.84;100.00;102375.03;15239824;19;20959;-54
2022/01/24 05:54:50;;;;;;;14.67;9.87;;;;;;;-1.82;100.00;102383.81;15261803;19;20183;-54
2022/01/24 05:59:54;;;;;;;16.40;10.67;;;;;;;-1.81;100.00;102386.44;15284833;19;20155;-54
2022/01/24 06:04:59;;;;;;;18.67;10.20;;;;;;;-1.79;100.00;102388.19;15282259;19;20768;-56
2022/01/24 06:10:05;;;;;;;17.83;11.60;;;;;;;-1.81;100.00;102383.81;15265916;19;20273;-54
2022/01/24 06:15:10;;;;;;;17.53;11.90;;;;;;;-1.75;100.00;102384.78;15248751;19;20133;-54
2022/01/24 06:20:14;;;;;;;32.00;15.33;;;;;;;-1.71;100.00;102381.41;15278900;19;20165;-53
2022/01/24 06:25:22;;;;;;;24.07;14.03;;;;;;;-1.68;100.00;102370.97;15282129;19;20841;-54
2022/01/24 06:30:27;;;;;;;24.43;14.00;;;;;;;-1.64;100.00;102383.25;15278038;19;20212;-53
2022/01/24 06:35:31;;;;;;;26.23;15.07;;;;;;;-1.61;100.00;102381.59;15249833;19;20155;-54
2022/01/24 06:40:36;;;;;;;22.60;14.20;;;;;;;-1.61;100.00;102372.84;15268178;19;20674;-54
2022/01/24 06:45:40;;;;;;;22.13;14.47;;;;;;;-1.60;100.00;102375.50;15276382;19;20181;-55
2022/01/24 06:50:45;;;;;;;23.27;14.90;;;;;;;-1.63;100.00;102375.44;15275408;19;20641;-54
2022/01/24 06:55:49;;;;;;;25.03;15.40;;;;;;;-1.56;100.00;102376.41;15253760;19;20167;-53
2022/01/24 07:00:54;;;;;;;23.70;14.87;;;;;;;-1.53;100.00;102385.22;15248379;19;20161;-52
2022/01/24 07:05:59;;;;;;;22.50;14.60;;;;;;;-1.49;100.00;102399.25;15277509;19;20187;-54
2022/01/24 07:11:03;;;;;;;21.47;14.07;;;;;;;-1.40;100.00;102403.78;15273236;19;20145;-52
2022/01/24 07:16:08;;;;;;;22.87;14.23;;;;;;;-1.34;100.00;102396.94;15274667;19;20523;-54
2022/01/24 07:21:12;;;;;;;31.00;18.13;;;;;;;-1.25;100.00;102391.84;15248201;19;20167;-52
2022/01/24 07:26:17;;;;;;;21.83;14.87;;;;;;;-1.16;100.00;102394.59;15266837;19;20179;-53
2022/01/24 07:31:22;;;;;;;22.07;14.27;;;;;;;-1.04;100.00;102414.00;15273192;19;20160;-53
2022/01/24 07:36:27;;;;;;;22.47;13.20;;;;;;;-0.93;100.00;102408.09;15276579;19;20140;-52
2022/01/24 07:41:33;;;;;;;23.00;14.27;;;;;;;-0.82;100.00;102410.88;15254914;19;20239;-52
2022/01/24 07:46:38;;;;;;;22.47;14.53;;;;;;;-0.71;100.00;102406.69;15222707;19;20247;-53
2022/01/24 07:51:44;;;;;;;23.80;15.20;;;;;;;-0.59;100.00;102413.84;15230202;19;20172;-55
2022/01/24 07:56:49;;;;;;;23.13;15.00;;;;;;;-0.47;100.00;102409.66;15238430;19;20145;-55
2022/01/24 08:01:53;;;;;;;22.87;14.60;;;;;;;-0.39;100.00;102401.91;15231741;19;20661;-55
2022/01/24 08:06:58;;;;;;;25.13;14.87;;;;;;;-0.27;100.00;102395.97;15213834;19;20145;-55
2022/01/24 08:12:04;;;;;;;21.83;14.43;;;;;;;-0.08;100.00;102393.59;15231350;19;20197;-53
2022/01/24 08:17:08;;;;;;;21.17;14.50;;;;;;;0.11;100.00;102391.19;15235648;19;20152;-56
2022/01/24 08:22:13;;;;;;;29.33;16.17;;;;;;;0.36;100.00;102391.47;15231535;19;20161;-58
2022/01/24 08:27:18;;;;;;;25.97;15.60;;;;;;;0.54;100.00;102385.53;15212479;19;20647;-57
2022/01/24 08:32:23;;;;;;;22.10;14.30;;;;;;;0.70;100.00;102402.34;15222089;19;20225;-56
2022/01/24 08:37:28;;;;;;;24.40;15.43;;;;;;;0.85;100.00;102405.06;15234215;19;20145;-54
2022/01/24 08:42:41;;;;;;;22.23;15.60;;;;;;;0.97;100.00;102405.19;15231769;19;20152;-57
2022/01/24 08:47:50;;;;;;;23.27;15.53;;;;;;;1.23;100.00;102405.41;15219008;19;20198;-55
2022/01/24 08:52:59;;;;;;;23.07;15.20;;;;;;;1.36;100.00;102399.34;15208058;19;20199;-56
2022/01/24 08:58:06;;;;;;;20.67;14.47;;;;;;;1.47;100.00;102398.53;15233704;19;20191;-58
2022/01/24 09:03:13;;;;;;;23.60;15.07;;;;;;;1.51;100.00;102401.22;15230934;19;20635;-56
2022/01/24 09:08:17;;;;;;;23.40;15.07;;;;;;;1.51;100.00;102403.84;15235134;19;20137;-56
2022/01/24 09:13:22;;;;;;;26.67;16.37;;;;;;;1.51;100.00;102395.94;15210645;19;20157;-56
2022/01/24 09:18:27;;;;;;;24.50;15.83;;;;;;;1.52;100.00;102405.59;15224262;19;20493;-56
2022/01/24 09:23:31;;;;;;;21.13;14.60;;;;;;;1.46;100.00;102400.28;15256381;19;20926;-56
2022/01/24 09:28:36;;;;;;;20.17;13.63;;;;;;;1.45;100.00;102399.41;15279602;19;20156;-53
2022/01/24 09:33:40;;;;;;;20.10;13.37;;;;;;;1.56;100.00;102394.25;15270193;19;20221;-57
2022/01/24 09:38:45;;;;;;;20.20;13.87;;;;;;;1.69;100.00;102388.16;15263495;19;20150;-57
2022/01/24 09:43:50;;;;;;;24.43;15.37;;;;;;;1.72;100.00;102396.06;15286841;19;20173;-54
2022/01/24 09:48:57;;;;;;;18.83;13.73;;;;;;;1.83;100.00;102384.69;15283939;19;20144;-53
2022/01/24 09:54:03;;;;;;;25.07;15.63;;;;;;;1.95;100.00;102377.75;15283600;19;20154;-54
2022/01/24 09:59:08;;;;;;;25.87;15.00;;;;;;;2.10;100.00;102376.94;15258376;19;20134;-56
2022/01/24 10:04:16;;;;;;;22.97;14.17;;;;;;;2.32;100.00;102373.47;15276334;19;20712;-54
2022/01/24 10:09:29;;;;;;;23.20;15.30;;;;;;;2.41;100.00;102378.78;15282765;19;20142;-56
2022/01/24 10:20:00;;;;;;;21.33;14.77;;;;;;;2.65;100.00;102366.53;15260685;19;20146;-54
2022/01/24 10:25:11;;;;;;;20.40;13.77;;;;;;;2.76;100.00;102355.13;15270359;19;20147;-54
2022/01/24 10:30:16;;;;;;;19.13;13.40;;;;;;;2.78;100.00;102358.59;15281798;19;20169;-56
2022/01/24 10:35:40;;;;;;;19.77;13.53;;;;;;;2.86;100.00;102350.72;15283629;19;20186;-54
2022/01/24 10:40:51;;;;;;;22.17;14.07;;;;;;;3.01;100.00;102350.72;15269398;19;20630;-55
2022/01/24 10:45:58;;;;;;;19.57;13.37;;;;;;;3.15;100.00;102343.63;15257474;19;20160;-54
2022/01/24 10:51:29;;;;;;;18.13;13.17;;;;;;;3.31;100.00;102348.91;15278181;19;20542;-55
2022/01/24 10:56:43;;;;;;;18.47;13.20;;;;;;;3.25;100.00;102340.13;15282859;19;20172;-54
2022/01/24 11:01:52;;;;;;;17.47;12.43;;;;;;;3.19;100.00;102324.28;15278902;19;20156;-55
2022/01/24 11:07:01;;;;;;;18.97;13.10;;;;;;;3.21;100.00;102317.25;15254102;19;20260;-53
2022/01/24 11:12:11;;;;;;;18.07;11.90;;;;;;;3.06;100.00;102301.47;15271965;19;20175;-54
2022/01/24 11:17:19;;;;;;;19.17;12.47;;;;;;;2.90;100.00;102297.94;15280988;19;20581;-54
2022/01/24 11:22:27;;;;;;;18.60;12.37;;;;;;;2.79;100.00;102296.22;15282149;19;20167;-54
2022/01/24 11:27:33;;;;;;;21.50;13.17;;;;;;;2.65;100.00;102293.59;15258011;19;20149;-53
2022/01/24 11:32:51;;;;;;;16.07;12.03;;;;;;;2.50;100.00;102289.19;15261052;19;20841;-53
2022/01/24 11:37:56;;;;;;;20.17;13.77;;;;;;;2.44;100.00;102278.66;15278903;19;20153;-52
2022/01/24 11:43:01;;;;;;;17.67;12.87;;;;;;;2.45;100.00;102290.94;15280420;19;20215;-52
2022/01/24 11:48:17;;;;;;;20.63;13.07;;;;;;;2.56;100.00;102282.16;15263688;19;20909;-52
2022/01/24 11:53:27;;;;;;;19.30;13.60;;;;;;;2.69;100.00;102268.09;15253641;19;20146;-53
2022/01/24 11:58:34;;;;;;;20.37;13.47;;;;;;;2.79;100.00;102269.84;15276440;19;20139;-52
2022/01/24 12:03:59;;;;;;;22.33;15.40;;;;;;;2.86;100.00;102268.97;15279950;19;20164;-52
2022/01/24 12:09:06;;;;;;;21.70;14.30;;;;;;;2.99;100.00;102264.56;15277953;19;20238;-53
2022/01/24 12:14:23;;;;;;;18.77;13.57;;;;;;;3.11;100.00;102256.63;15251293;19;20160;-54
2022/01/24 12:19:31;;;;;;;24.03;15.73;;;;;;;3.23;100.00;102252.19;15270124;19;20147;-54
2022/01/24 12:24:46;;;;;;;20.30;14.70;;;;;;;3.29;100.00;102246.00;15276289;19;20151;-52
2022/01/24 12:29:56;;;;;;;17.40;13.53;;;;;;;3.25;100.00;102244.28;15275047;19;20244;-56
2022/01/24 12:35:03;;;;;;;19.50;13.67;;;;;;;3.25;100.00;102239.00;15256545;19;20224;-52
2022/01/24 12:40:11;;;;;;;22.83;14.07;;;;;;;3.23;100.00;102232.84;15259785;19;20141;-53
2022/01/24 12:50:38;;;;;;;23.30;15.50;;;;;;;2.92;100.00;102228.50;15273682;19;20165;-52
2022/01/24 12:55:44;;;;;;;20.57;13.57;;;;;;;2.73;100.00;102215.38;15264380;19;20164;-56
2022/01/24 13:00:49;;;;;;;23.53;16.50;;;;;;;2.62;100.00;102224.19;15254272;19;20208;-56
2022/01/24 13:05:54;;;;;;;24.93;15.10;;;;;;;2.52;100.00;102229.47;15289009;19;20163;-54
2022/01/24 13:10:59;;;;;;;22.03;14.73;;;;;;;2.49;100.00;102224.19;15288786;19;20160;-55
2022/01/24 13:21:22;;;;;;;24.40;15.60;;;;;;;2.49;100.00;102213.66;15261273;19;20218;-55
2022/01/24 13:26:28;;;;;;;22.50;15.07;;;;;;;2.59;100.00;102213.63;15276210;19;20174;-54
2022/01/24 13:31:32;;;;;;;20.70;13.90;;;;;;;2.62;100.00;102209.25;15285724;19;20147;-54
2022/01/24 13:36:38;;;;;;;22.50;15.37;;;;;;;2.63;100.00;102197.84;15289456;19;20215;-54
2022/01/24 13:41:42;;;;;;;27.07;17.40;;;;;;;2.56;100.00;102189.91;15273922;19;20139;-55
2022/01/24 13:46:47;;;;;;;25.97;17.07;;;;;;;2.38;100.00;102194.34;15263279;19;20194;-54
2022/01/24 13:51:54;;;;;;;23.67;14.87;;;;;;;2.38;100.00;102194.34;15282002;19;20235;-55
2022/01/24 13:57:02;;;;;;;23.83;14.67;;;;;;;2.35;100.00;102204.88;15287419;19;20217;-53
2022/01/24 14:02:15;;;;;;;32.33;18.27;;;;;;;2.32;100.00;102204.88;15285296;19;20148;-55
2022/01/24 14:07:37;;;;;;;30.80;18.37;;;;;;;2.24;100.00;102211.91;15260363;19;20147;-55
2022/01/24 14:12:46;;;;;;;28.33;17.00;;;;;;;2.11;100.00;102200.50;15273759;19;20156;-53
2022/01/24 14:18:31;;;;;;;27.23;17.73;;;;;;;2.03;100.00;102201.38;15285727;19;20142;-55
2022/01/24 14:23:38;;;;;;;24.00;16.10;;;;;;;2.01;100.00;102208.38;15281213;19;20868;-56
2022/01/24 14:28:43;;;;;;;27.67;17.73;;;;;;;1.90;100.00;102207.50;15241839;19;20187;-55
2022/01/24 14:33:48;;;;;;;26.73;18.17;;;;;;;1.76;100.00;102213.59;15249839;19;20170;-54
2022/01/24 14:38:59;;;;;;;26.97;17.77;;;;;;;1.64;100.00;102207.44;15262337;19;20162;-56
2022/01/24 14:49:26;;;;;;;29.93;18.90;;;;;;;1.49;100.00;102200.38;15235562;19;20174;-56
2022/01/24 14:54:34;;;;;;;29.00;18.97;;;;;;;1.45;100.00;102195.97;15236380;19;20250;-55
2022/01/24 14:59:42;;;;;;;28.77;19.07;;;;;;;1.40;100.00;102195.09;15264969;19;20728;-53
2022/01/24 15:04:46;;;;;;;32.27;19.73;;;;;;;1.31;100.00;102188.06;15258737;19;20177;-55
2022/01/24 15:09:51;;;;;;;29.80;20.67;;;;;;;1.22;100.00;102190.63;15265589;19;20575;-55
2022/01/24 15:14:59;;;;;;;34.57;21.63;;;;;;;1.14;100.00;102178.31;15234480;19;20735;-54
2022/01/24 15:25:24;;;;;;;35.23;22.50;;;;;;;1.06;100.00;102176.56;15249579;19;20153;-52
2022/01/24 15:30:28;;;;;;;34.80;21.23;;;;;;;1.02;100.00;102168.63;15257019;19;20150;-54
2022/01/24 15:35:35;;;;;;;32.50;21.23;;;;;;;0.98;100.00;102173.00;15239766;19;20165;-53
2022/01/24 15:40:41;;;;;;;30.50;19.67;;;;;;;0.98;100.00;102173.00;15236143;19;20210;-54
2022/01/24 15:45:58;;;;;;;28.00;19.53;;;;;;;0.99;100.00;102182.63;15257473;19;20196;-54
2022/01/24 15:51:11;;;;;;;38.80;22.73;;;;;;;0.96;100.00;102180.00;15245742;19;20224;-51
2022/01/24 15:57:39;;;;;;;35.43;22.17;;;;;;;0.90;100.00;102176.47;15249082;19;20203;-52
2022/01/24 16:01:41;;;;;;;33.20;22.60;;;;;;;0.91;100.00;102173.84;15238564;19;20587;-54
2022/01/24 16:06:46;;;;;;;42.00;27.67;;;;;;;0.90;100.00;102172.09;15253815;19;20157;-52
2022/01/24 16:11:52;;;;;;;40.90;28.33;;;;;;;0.90;100.00;102164.19;15254264;19;20148;-53
2022/01/24 16:17:03;;;;;;;43.57;27.33;;;;;;;0.91;100.00;102165.97;15247837;19;20164;-53
2022/01/24 16:22:29;;;;;;;40.37;25.47;;;;;;;0.91;100.00;102159.81;15227734;19;20214;-52
2022/01/24 16:27:34;;;;;;;34.97;22.83;;;;;;;0.92;100.00;102157.22;15244415;19;20181;-51
2022/01/24 16:32:38;;;;;;;36.50;22.60;;;;;;;0.94;100.00;102150.22;15253666;19;20167;-50
2022/01/24 16:37:43;;;;;;;33.70;21.37;;;;;;;0.92;100.00;102144.06;15259351;19;20215;-51
2022/01/24 16:43:08;;;;;;;35.93;22.90;;;;;;;0.93;100.00;102142.31;15232912;19;21056;-51
2022/01/24 16:48:15;;;;;;;35.77;22.47;;;;;;;0.91;100.00;102137.06;15243422;19;20215;-51
2022/01/24 16:53:22;;;;;;;37.23;23.93;;;;;;;0.92;100.00;102133.56;15246817;19;20149;-53
2022/01/24 16:58:29;;;;;;;37.00;23.93;;;;;;;0.91;100.00;102129.16;15259787;19;20164;-52
2022/01/24 17:03:33;;;;;;;36.13;23.20;;;;;;;0.91;100.00;102128.28;15250189;19;20156;-51
2022/01/24 17:08:39;;;;;;;35.40;23.33;;;;;;;0.89;100.00;102125.66;15231070;19;20477;-51
2022/01/24 17:13:45;;;;;;;38.37;24.63;;;;;;;0.87;100.00;102127.38;15250368;19;20950;-51
2022/01/24 17:19:09;;;;;;;35.63;23.17;;;;;;;0.83;100.00;102115.13;15258731;19;20157;-52
2022/01/24 17:24:14;;;;;;;36.60;24.07;;;;;;;0.89;100.00;102130.91;15257838;19;20168;-53
2022/01/24 17:29:19;;;;;;;37.90;25.50;;;;;;;0.89;100.00;102123.00;15228113;19;20161;-52
2022/01/24 17:34:25;;;;;;;36.77;23.90;;;;;;;0.88;100.00;102126.50;15238321;19;20169;-51
2022/01/24 17:39:32;;;;;;;39.50;25.33;;;;;;;0.89;100.00;102125.66;15250311;19;20141;-52
2022/01/24 17:44:37;;;;;;;39.37;25.43;;;;;;;0.90;100.00;102116.88;15257111;19;20192;-51
2022/01/24 17:49:42;;;;;;;42.27;27.57;;;;;;;0.87;100.00;102116.00;15243110;19;20200;-51
2022/01/24 17:54:46;;;;;;;42.57;27.43;;;;;;;0.86;100.00;102116.84;15249656;19;20160;-51
2022/01/24 17:59:51;;;;;;;44.20;28.87;;;;;;;0.85;100.00;102101.97;15269619;19;20187;-50
2022/01/24 18:04:55;;;;;;;38.07;25.60;;;;;;;0.83;100.00;102104.59;15265813;19;20153;-53
2022/01/24 18:10:00;;;;;;;41.03;28.27;;;;;;;0.78;100.00;102101.06;15268287;19;20157;-51
2022/01/24 18:15:06;;;;;;;40.17;26.23;;;;;;;0.78;100.00;102105.44;15225012;19;20889;-53
2022/01/24 18:20:12;;;;;;;42.43;27.97;;;;;;;0.80;100.00;102107.22;15260481;19;20220;-52
2022/01/24 18:25:17;;;;;;;49.97;39.73;;;;;;;1.25;100.00;102102.97;15245253;19;20398;-50
2022/01/24 18:30:22;;;;;;;43.97;29.63;;;;;;;1.00;100.00;102087.13;15258243;19;21001;-51
2022/01/24 18:35:28;;;;;;;40.03;27.57;;;;;;;0.96;100.00;102090.66;15247240;19;20150;-49
2022/01/24 18:40:32;;;;;;;51.58;41.90;;;;;;;1.38;100.00;102084.59;15277435;19;20394;-50
2022/01/24 18:45:37;;;;;;;48.30;33.23;;;;;;;1.09;100.00;102086.28;15299509;19;20174;-51
2022/01/24 19:30:57;;;;;;;49.17;32.23;;;;;;;0.86;100.00;102064.28;15233841;19;20319;-50
2022/01/24 19:36:03;;;;;;;49.93;32.30;;;;;;;0.86;100.00;102059.91;15251174;19;20183;-49
2022/01/24 19:41:13;;;;;;;47.07;30.90;;;;;;;0.88;100.00;102052.91;15273054;19;20154;-48
2022/01/24 19:46:17;;;;;;;50.60;31.97;;;;;;;0.89;100.00;102056.44;15274898;19;20628;-47
2022/01/24 19:51:22;;;;;;;52.20;33.60;;;;;;;0.89;100.00;102044.16;15263377;19;20238;-48
2022/01/24 19:56:39;;;;;;;52.40;34.27;;;;;;;0.88;100.00;102033.66;15244223;19;20141;-48
2022/01/24 20:01:45;;;;;;;61.15;46.17;;;;;;;1.04;100.00;102036.34;15267267;19;21054;-45
2022/01/24 20:06:58;;;;;;;63.17;39.93;;;;;;;0.89;100.00;102036.28;15274807;19;20148;-48
2022/01/24 20:12:05;;;;;;;55.20;36.83;;;;;;;0.87;100.00;102035.41;15271337;19;20198;-48
2022/01/24 20:17:10;;;;;;;60.60;38.60;;;;;;;0.86;100.00;102035.38;15243554;19;20157;-49
2022/01/24 20:22:15;;;;;;;64.13;39.90;;;;;;;0.89;100.00;102041.53;15259258;19;20166;-48
2022/01/24 20:27:20;;;;;;;61.37;41.63;;;;;;;0.86;100.00;102040.66;15272901;19;20137;-46
2022/01/24 20:32:24;;;;;;;59.20;39.57;;;;;;;0.85;100.00;102039.75;15271917;19;20642;-45
2022/01/24 20:37:33;;;;;;;64.73;39.57;;;;;;;0.83;100.00;102033.66;15261303;19;20164;-50
2022/01/24 20:42:38;;;;;;;63.60;40.80;;;;;;;0.83;100.00;102036.28;15252786;19;20144;-47
2022/01/24 20:47:45;;;;;;;67.53;42.53;;;;;;;0.81;100.00;102032.75;15274693;19;20141;-48
2022/01/24 20:52:54;;;;;;;70.93;45.87;;;;;;;0.75;100.00;102027.47;15270271;19;20150;-47
2022/01/24 20:58:04;;;;;;;66.67;42.50;;;;;;;0.75;100.00;102021.34;15275441;19;20147;-48
2022/01/24 21:03:11;;;;;;;72.63;43.93;;;;;;;0.73;100.00;102021.34;15249484;19;20705;-49
2022/01/24 21:08:17;;;;;;;65.47;41.77;;;;;;;0.72;100.00;102016.97;15264244;19;20173;-47
2022/01/24 21:13:33;;;;;;;73.77;46.13;;;;;;;0.71;100.00;102017.84;15269075;19;20149;-47
2022/01/24 21:18:38;;;;;;;69.90;43.50;;;;;;;0.68;100.00;102005.56;15273464;19;20144;-48
2022/01/24 21:23:43;;;;;;;75.87;45.30;;;;;;;0.69;100.00;102006.44;15264008;19;20705;-46
2022/01/24 21:28:49;;;;;;;77.80;47.33;;;;;;;0.69;100.00;101995.94;15268800;19;20172;-49
2022/01/24 21:34:48;;;;;;;83.77;50.77;;;;;;;0.67;100.00;101984.53;15282609;19;20392;-49
2022/01/24 21:39:53;;;;;;;72.27;46.33;;;;;;;0.66;100.00;101977.53;15274067;19;20178;-49
2022/01/24 21:44:57;;;;;;;74.37;47.17;;;;;;;0.68;100.00;101975.78;15274522;19;20515;-46
2022/01/24 21:50:04;;;;;;;79.23;50.60;;;;;;;0.64;100.00;101969.66;15263478;19;20143;-50
2022/01/24 21:55:11;;;;;;;79.90;50.30;;;;;;;0.63;100.00;101956.50;15273202;19;20168;-49
2022/01/24 22:00:18;;;;;;;86.23;52.07;;;;;;;0.51;100.00;101941.59;15280505;19;20157;-45
2022/01/24 22:05:24;;;;;;;88.83;54.13;;;;;;;0.59;100.00;101954.75;15284550;19;20538;-48
2022/01/24 22:10:32;;;;;;;80.20;49.90;;;;;;;0.58;100.00;101939.88;15252742;19;20164;-50
2022/01/24 22:15:37;;;;;;;93.33;51.40;;;;;;;0.60;100.00;101933.75;15257664;19;20216;-49
2022/01/24 22:20:41;;;;;;;89.20;53.73;;;;;;;0.60;100.00;101927.63;15281133;19;20179;-48
2022/01/24 22:25:48;;;;;;;85.30;50.57;;;;;;;0.61;100.00;101918.84;15282524;19;20141;-48
2022/01/24 22:30:53;;;;;;;85.33;51.90;;;;;;;0.57;100.00;101923.22;15257903;19;20178;-50
2022/01/24 22:35:57;;;;;;;87.13;51.97;;;;;;;0.63;100.00;101917.09;15256023;19;20265;-47
2022/01/24 22:41:12;;;;;;;89.70;52.73;;;;;;;0.66;100.00;101927.63;15281467;19;20233;-49
2022/01/24 22:46:20;;;;;;;79.60;49.63;;;;;;;0.66;100.00;101909.22;15278582;19;20176;-50
2022/01/24 22:51:25;;;;;;;90.07;51.80;;;;;;;0.67;100.00;101897.84;15276170;19;20882;-50
2022/01/24 22:56:30;;;;;;;93.97;52.47;;;;;;;0.69;100.00;101896.97;15248295;19;20169;-46
2022/01/24 23:01:35;;;;;;;96.50;55.17;;;;;;;0.71;100.00;101899.63;15272340;19;20157;-52
2022/01/24 23:06:39;;;;;;;92.53;51.60;;;;;;;0.73;100.00;101888.22;15280770;19;20199;-49
2022/01/24 23:11:45;;;;;;;92.33;53.10;;;;;;;0.77;100.00;101893.47;15279243;19;20142;-50
2022/01/24 23:22:06;;;;;;;91.00;50.67;;;;;;;0.81;100.00;101864.59;15259262;19;20154;-48
2022/01/24 23:27:18;;;;;;;96.60;49.47;;;;;;;0.86;100.00;101868.06;15278127;19;20133;-51
2022/01/24 23:32:30;;;;;;;84.17;45.73;;;;;;;0.91;100.00;101858.44;15276876;19;20609;-50
2022/01/24 23:42:51;;;;;;;86.20;45.57;;;;;;;0.95;100.00;101838.31;15247559;19;20141;-47
2022/01/24 23:47:56;;;;;;;84.47;46.00;;;;;;;0.98;100.00;101835.66;15271667;19;20156;-49
2022/01/24 23:53:00;;;;;;;88.43;46.23;;;;;;;1.00;100.00;101829.53;15274435;19;20140;-48
2022/01/24 23:58:15;;;;;;;91.83;47.90;;;;;;;0.99;100.00;101840.91;15277066;19;20153;-52
